createdAt,value
2019-03-18T00:00:54.811Z,2.72
2019-03-18T00:03:22.784Z,4.33
2019-03-18T00:05:50.763Z,2.75
2019-03-18T00:08:18.722Z,4.53
2019-03-18T00:10:46.687Z,2.15
2019-03-18T00:13:14.654Z,3.35
2019-03-18T00:15:42.624Z,4.17
2019-03-18T00:18:10.591Z,4.60
2019-03-18T00:20:38.556Z,4.50
2019-03-18T00:23:06.539Z,3.17
2019-03-18T00:25:34.500Z,2.35
2019-03-18T00:28:02.462Z,4.75
2019-03-18T00:30:30.441Z,2.72
2019-03-18T00:32:58.410Z,1.98
2019-03-18T00:35:26.384Z,4.08
2019-03-18T00:37:54.353Z,2.87
2019-03-18T00:40:22.342Z,4.80
2019-03-18T00:42:50.288Z,2.70
2019-03-18T00:45:18.252Z,3.92
2019-03-18T00:47:46.256Z,3.80
2019-03-18T00:50:14.467Z,4.45
2019-03-18T00:52:42.429Z,3.55
2019-03-18T00:55:10.400Z,4.30
2019-03-18T00:57:38.367Z,3.95
2019-03-18T01:00:07.992Z,3.05
2019-03-18T01:02:35.948Z,3.72
2019-03-18T01:05:04.580Z,4.60
2019-03-18T01:07:32.557Z,3.95
2019-03-18T01:10:00.607Z,6.35
2019-03-18T01:12:28.576Z,6.47
2019-03-18T01:14:56.536Z,8.70
2019-03-18T01:17:24.523Z,6.33
2019-03-18T01:19:52.500Z,6.40
2019-03-18T01:22:20.474Z,6.70
2019-03-18T01:24:48.438Z,2.70
2019-03-18T01:27:16.396Z,4.20
2019-03-18T01:29:44.382Z,4.33
2019-03-18T01:32:12.328Z,4.67
2019-03-18T01:34:40.324Z,3.92
2019-03-18T01:37:08.280Z,5.00
2019-03-18T01:39:36.238Z,3.65
2019-03-18T01:42:04.211Z,5.33
2019-03-18T01:44:32.205Z,5.25
2019-03-18T01:47:00.171Z,7.95
2019-03-18T01:49:28.152Z,4.85
2019-03-18T01:51:56.111Z,8.73
2019-03-18T01:54:24.079Z,5.12
2019-03-18T01:56:52.051Z,9.15
2019-03-18T01:59:20.025Z,6.20
2019-03-18T02:01:47.993Z,7.05
2019-03-18T02:04:15.970Z,6.08
2019-03-18T02:06:43.943Z,7.37
2019-03-18T02:09:11.908Z,9.98
2019-03-18T02:11:39.988Z,7.47
2019-03-18T02:14:07.914Z,6.85
2019-03-18T02:16:35.888Z,10.15
2019-03-18T02:19:03.845Z,5.53
2019-03-18T02:21:31.815Z,5.67
2019-03-18T02:23:59.777Z,5.22
2019-03-18T02:26:27.752Z,7.50
2019-03-18T02:28:55.728Z,6.45
2019-03-18T02:31:23.689Z,10.10
2019-03-18T02:33:51.684Z,11.25
2019-03-18T02:36:19.641Z,11.60
2019-03-18T02:38:47.601Z,13.43
2019-03-18T02:41:15.569Z,14.05
2019-03-18T02:43:43.545Z,11.08
2019-03-18T02:46:11.523Z,11.00
2019-03-18T02:48:39.499Z,9.68
2019-03-18T02:51:07.537Z,11.55
2019-03-18T02:53:35.515Z,9.83
2019-03-18T02:56:03.470Z,9.68
2019-03-18T02:58:31.437Z,10.98
2019-03-18T03:00:59.874Z,10.28
2019-03-18T03:03:27.827Z,8.83
2019-03-18T03:05:55.799Z,8.70
2019-03-18T03:08:23.755Z,8.80
2019-03-18T03:10:51.718Z,10.13
2019-03-18T03:13:19.691Z,6.85
2019-03-18T03:15:47.719Z,7.85
2019-03-18T03:18:15.792Z,10.82
2019-03-18T03:20:43.752Z,13.28
2019-03-18T03:23:11.721Z,10.53
2019-03-18T03:25:41.312Z,9.40
2019-03-18T03:28:09.361Z,16.05
2019-03-18T03:30:38.599Z,9.60
2019-03-18T03:33:09.653Z,9.88
2019-03-18T03:35:37.616Z,12.78
2019-03-18T03:38:05.617Z,13.68
2019-03-18T03:40:33.571Z,8.30
2019-03-18T03:43:01.539Z,14.33
2019-03-18T03:45:29.508Z,8.65
2019-03-18T03:47:57.582Z,14.07
2019-03-18T03:50:25.544Z,11.93
2019-03-18T03:52:53.503Z,12.95
2019-03-18T03:55:21.502Z,16.45
2019-03-18T03:57:49.489Z,13.85
2019-03-18T04:00:17.524Z,10.88
2019-03-18T04:02:45.500Z,9.78
2019-03-18T04:05:13.475Z,12.43
2019-03-18T04:07:41.450Z,13.32
2019-03-18T04:10:10.186Z,17.82
2019-03-18T04:12:38.160Z,16.20
2019-03-18T04:15:07.529Z,15.28
2019-03-18T04:17:35.500Z,12.85
2019-03-18T04:20:04.141Z,11.43
2019-03-18T04:22:32.105Z,10.50
2019-03-18T04:25:00.502Z,10.63
2019-03-18T04:27:28.691Z,14.23
2019-03-18T04:29:56.644Z,12.43
2019-03-18T04:32:24.629Z,10.95
2019-03-18T04:34:52.595Z,12.47
2019-03-18T04:37:20.560Z,13.20
2019-03-18T04:39:48.539Z,18.37
2019-03-18T04:42:16.504Z,10.30
2019-03-18T04:44:44.481Z,15.32
2019-03-18T04:47:14.506Z,16.02
2019-03-18T04:49:42.295Z,15.00
2019-03-18T04:52:10.256Z,15.32
2019-03-18T04:54:38.223Z,16.25
2019-03-18T04:57:06.208Z,19.32
2019-03-18T04:59:34.173Z,15.80
2019-03-18T05:02:02.140Z,15.40
2019-03-18T05:04:34.439Z,12.78
2019-03-18T05:07:02.567Z,13.35
2019-03-18T05:09:30.552Z,13.48
2019-03-18T05:11:58.536Z,14.70
2019-03-18T05:14:26.500Z,13.15
2019-03-18T05:16:54.520Z,13.38
2019-03-18T05:19:22.479Z,20.27
2019-03-18T05:21:50.526Z,11.38
2019-03-18T05:24:18.491Z,15.93
2019-03-18T05:26:46.480Z,14.03
2019-03-18T05:29:14.451Z,16.27
2019-03-18T05:31:42.416Z,16.05
2019-03-18T05:34:10.399Z,13.15
2019-03-18T05:36:38.374Z,11.03
2019-03-18T05:39:06.350Z,18.57
2019-03-18T05:41:34.311Z,15.30
2019-03-18T05:44:02.381Z,14.98
2019-03-18T05:46:30.341Z,16.10
2019-03-18T05:48:58.312Z,18.23
2019-03-18T05:51:26.303Z,13.32
2019-03-18T05:53:54.280Z,12.75
2019-03-18T05:56:22.243Z,13.10
2019-03-18T05:58:50.364Z,11.63
2019-03-18T06:01:18.331Z,15.63
2019-03-18T06:03:46.291Z,15.65
2019-03-18T06:06:14.268Z,11.08
2019-03-18T06:08:42.232Z,13.95
2019-03-18T06:11:10.194Z,13.08
2019-03-18T06:13:38.178Z,9.83
2019-03-18T06:16:06.150Z,19.05
2019-03-18T06:18:34.112Z,8.38
2019-03-18T06:21:02.080Z,10.20
2019-03-18T06:23:30.080Z,12.68
2019-03-18T06:25:58.057Z,12.45
2019-03-18T06:28:26.015Z,13.78
2019-03-18T06:30:53.993Z,8.85
2019-03-18T06:33:21.977Z,11.20
2019-03-18T06:35:50.017Z,9.10
2019-03-18T06:38:17.988Z,10.70
2019-03-18T06:40:45.951Z,13.58
2019-03-18T06:43:13.931Z,10.93
2019-03-18T06:45:41.896Z,14.07
2019-03-18T06:48:09.859Z,14.23
2019-03-18T06:50:37.857Z,17.32
2019-03-18T06:53:05.832Z,13.93
2019-03-18T06:55:33.808Z,12.93
2019-03-18T06:58:01.803Z,8.48
2019-03-18T07:00:29.788Z,10.65
2019-03-18T07:02:57.752Z,12.15
2019-03-18T07:05:25.728Z,14.25
2019-03-18T07:07:53.687Z,11.73
2019-03-18T07:10:21.655Z,7.65
2019-03-18T07:12:49.621Z,13.62
2019-03-18T07:15:17.595Z,8.10
2019-03-18T07:17:45.568Z,11.10
2019-03-18T07:20:13.812Z,12.00
2019-03-18T07:22:41.771Z,6.87
2019-03-18T07:25:09.743Z,9.50
2019-03-18T07:27:37.732Z,11.08
2019-03-18T07:30:09.454Z,8.23
2019-03-18T07:32:37.445Z,6.80
2019-03-18T07:35:05.587Z,6.47
2019-03-18T07:37:33.564Z,11.57
2019-03-18T07:40:01.544Z,12.07
2019-03-18T07:42:29.528Z,11.18
2019-03-18T07:44:57.495Z,5.92
2019-03-18T07:47:25.472Z,10.90
2019-03-18T07:49:53.484Z,9.08
2019-03-18T07:52:21.989Z,6.80
2019-03-18T07:54:50.118Z,11.73
2019-03-18T07:57:18.072Z,9.43
2019-03-18T07:59:46.043Z,8.48
2019-03-18T08:02:14.002Z,6.03
2019-03-18T08:04:41.992Z,6.28
2019-03-18T08:07:09.949Z,7.62
2019-03-18T08:09:37.924Z,7.92
2019-03-18T08:12:05.911Z,4.78
2019-03-18T08:14:33.916Z,15.68
2019-03-18T08:17:01.899Z,9.68
2019-03-18T08:19:29.856Z,7.33
2019-03-18T08:21:57.816Z,8.13
2019-03-18T08:24:25.793Z,8.93
2019-03-18T08:26:53.766Z,8.80
2019-03-18T08:29:21.740Z,10.28
2019-03-18T08:31:49.703Z,4.97
2019-03-18T08:34:17.662Z,8.48
2019-03-18T08:36:45.659Z,8.03
2019-03-18T08:39:13.615Z,7.40
2019-03-18T08:41:41.888Z,9.03
2019-03-18T08:44:12.537Z,7.60
2019-03-18T08:49:07.844Z,5.97
2019-03-18T08:51:35.851Z,6.70
2019-03-18T08:54:03.995Z,4.90
2019-03-18T08:56:32.002Z,9.43
2019-03-18T08:59:00.002Z,5.08
2019-03-18T09:01:28.153Z,6.17
2019-03-18T09:03:56.157Z,4.70
2019-03-18T09:06:24.142Z,5.10
2019-03-18T09:08:52.115Z,5.97
2019-03-18T09:11:20.077Z,8.48
2019-03-18T09:13:48.048Z,8.38
2019-03-18T09:16:19.179Z,5.40
2019-03-18T09:18:47.160Z,6.22
2019-03-18T09:21:15.284Z,5.08
2019-03-18T09:23:43.261Z,4.87
2019-03-18T09:26:11.232Z,6.58
2019-03-18T09:28:39.219Z,6.10
2019-03-18T09:31:07.201Z,3.87
2019-03-18T09:33:35.159Z,6.95
2019-03-18T09:36:03.131Z,3.65
2019-03-18T09:38:31.096Z,4.65
2019-03-18T09:40:59.093Z,4.28
2019-03-18T09:43:27.060Z,9.83
2019-03-18T09:45:55.023Z,7.85
2019-03-18T09:48:23.010Z,7.60
2019-03-18T09:50:51.019Z,5.45
2019-03-18T09:53:19.022Z,7.62
2019-03-18T09:55:46.994Z,11.48
2019-03-18T09:58:14.991Z,7.33
2019-03-18T10:00:42.956Z,7.20
2019-03-18T10:03:10.972Z,6.00
2019-03-18T10:05:38.963Z,6.80
2019-03-18T10:08:06.937Z,5.53
2019-03-18T10:10:34.964Z,6.70
2019-03-18T10:13:02.946Z,7.47
2019-03-18T10:15:30.936Z,4.65
2019-03-18T10:17:59.017Z,8.88
2019-03-18T10:20:26.993Z,11.28
2019-03-18T10:22:54.974Z,8.73
2019-03-18T10:25:22.992Z,6.05
2019-03-18T10:27:50.979Z,5.58
2019-03-18T10:30:18.935Z,7.25
2019-03-18T10:32:46.943Z,8.55
2019-03-18T10:35:15.867Z,8.63
2019-03-18T10:37:43.820Z,8.70
2019-03-18T10:40:12.368Z,13.18
2019-03-18T10:42:40.331Z,10.68
2019-03-18T10:45:09.079Z,8.18
2019-03-18T10:47:37.048Z,6.85
2019-03-18T10:50:06.962Z,5.40
2019-03-18T10:52:35.034Z,8.58
2019-03-18T10:55:03.067Z,8.63
2019-03-18T10:57:31.017Z,5.97
2019-03-18T11:00:01.137Z,9.05
2019-03-18T11:02:28.688Z,8.63
2019-03-18T11:04:56.655Z,7.00
2019-03-18T11:07:24.630Z,13.98
2019-03-18T11:09:52.595Z,6.10
2019-03-18T11:12:20.649Z,9.93
2019-03-18T11:14:48.599Z,7.53
2019-03-18T11:17:16.592Z,9.00
2019-03-18T11:19:44.540Z,8.20
2019-03-18T11:22:12.575Z,8.40
2019-03-18T11:24:40.556Z,8.28
2019-03-18T11:27:08.508Z,8.28
2019-03-18T11:29:36.486Z,5.00
2019-03-18T11:32:04.472Z,6.22
2019-03-18T11:34:32.468Z,5.80
2019-03-18T11:37:00.429Z,7.40
2019-03-18T11:39:28.461Z,7.08
2019-03-18T11:41:56.491Z,5.15
2019-03-18T11:44:24.463Z,8.50
2019-03-18T11:46:52.450Z,4.20
2019-03-18T11:49:20.409Z,6.62
2019-03-18T11:51:48.380Z,7.00
2019-03-18T11:54:16.413Z,5.10
2019-03-18T11:56:44.520Z,5.35
2019-03-18T11:59:12.522Z,4.55
2019-03-18T12:01:40.553Z,6.95
2019-03-18T12:04:08.508Z,5.15
2019-03-18T12:06:36.525Z,6.60
2019-03-18T12:09:05.280Z,3.42
2019-03-18T12:11:33.299Z,9.08
2019-03-18T12:14:01.271Z,4.00
2019-03-18T12:16:29.243Z,2.65
2019-03-18T12:18:57.312Z,2.95
2019-03-18T12:21:26.050Z,7.37
2019-03-18T12:23:54.007Z,4.72
2019-03-18T12:26:22.451Z,4.80
2019-03-18T12:28:50.416Z,5.10
2019-03-18T12:31:18.387Z,5.10
2019-03-18T12:33:46.347Z,3.90
2019-03-18T12:36:14.495Z,3.70
2019-03-18T12:38:42.466Z,6.15
2019-03-18T12:41:10.549Z,4.87
2019-03-18T12:43:38.520Z,8.40
2019-03-18T12:46:06.548Z,8.80
2019-03-18T12:48:34.546Z,7.10
2019-03-18T12:51:02.505Z,7.62
2019-03-18T12:53:30.460Z,9.45
2019-03-18T12:55:58.448Z,14.20
2019-03-18T12:58:26.454Z,4.00
2019-03-18T13:00:54.433Z,7.78
2019-03-18T13:03:22.391Z,9.63
2019-03-18T13:05:50.365Z,6.55
2019-03-18T13:08:18.336Z,2.37
2019-03-18T13:10:46.300Z,2.85
2019-03-18T13:13:14.345Z,2.08
2019-03-18T13:15:42.338Z,4.78
2019-03-18T13:18:10.309Z,6.62
2019-03-18T13:20:38.271Z,6.25
2019-03-18T13:23:06.281Z,6.92
2019-03-18T13:25:34.291Z,8.60
2019-03-18T13:28:02.259Z,4.30
2019-03-18T13:30:30.219Z,10.30
2019-03-18T13:32:58.231Z,5.92
2019-03-18T13:35:26.193Z,5.62
2019-03-18T13:37:54.183Z,3.67
2019-03-18T13:40:22.153Z,6.47
2019-03-18T13:42:50.160Z,4.03
2019-03-18T13:45:19.843Z,5.17
2019-03-18T13:47:47.903Z,5.80
2019-03-18T13:50:17.492Z,6.37
2019-03-18T13:52:45.466Z,5.90
2019-03-18T13:55:13.423Z,4.50
2019-03-18T13:57:41.392Z,7.08
2019-03-18T14:00:18.881Z,4.00
2019-03-18T14:02:46.927Z,4.90
2019-03-18T14:05:14.905Z,7.33
2019-03-18T14:07:42.875Z,6.45
2019-03-18T14:10:12.455Z,4.45
2019-03-18T14:12:40.428Z,3.20
2019-03-18T14:15:10.368Z,3.25
2019-03-18T14:17:38.349Z,3.70
2019-03-18T14:20:07.943Z,6.25
2019-03-18T14:22:35.943Z,5.03
2019-03-18T14:25:04.182Z,5.20
2019-03-18T14:27:32.157Z,3.55
2019-03-18T14:30:00.366Z,5.85
2019-03-18T14:32:28.465Z,5.62
2019-03-18T14:34:56.421Z,7.22
2019-03-18T14:37:24.485Z,6.42
2019-03-18T14:39:52.447Z,4.97
2019-03-18T14:42:20.401Z,6.30
2019-03-18T14:44:48.379Z,4.50
2019-03-18T14:47:16.348Z,7.33
2019-03-18T14:49:46.324Z,3.17
2019-03-18T14:52:14.015Z,10.20
2019-03-18T14:54:41.987Z,2.25
2019-03-18T14:57:09.954Z,5.55
2019-03-18T14:59:37.946Z,3.70
2019-03-18T15:02:05.950Z,5.28
2019-03-18T15:04:33.916Z,4.03
2019-03-18T15:07:01.889Z,8.28
2019-03-18T15:09:29.858Z,4.85
2019-03-18T15:11:57.814Z,8.43
2019-03-18T15:14:25.795Z,4.42
2019-03-18T15:16:53.757Z,4.10
2019-03-18T15:19:21.874Z,3.85
2019-03-18T15:21:58.331Z,7.08
2019-03-18T15:24:20.218Z,9.25
2019-03-18T15:26:48.219Z,9.50
2019-03-18T15:29:16.185Z,5.03
2019-03-18T15:31:44.164Z,4.10
2019-03-18T15:34:12.132Z,6.12
2019-03-18T15:36:40.153Z,4.28
2019-03-18T15:39:08.133Z,8.00
2019-03-18T15:41:36.248Z,7.37
2019-03-18T15:44:04.208Z,5.62
2019-03-18T15:46:32.177Z,5.83
2019-03-18T15:49:00.151Z,4.80
2019-03-18T15:51:28.150Z,5.45
2019-03-18T15:53:56.156Z,5.50
2019-03-18T15:56:24.117Z,4.80
2019-03-18T15:58:52.084Z,2.42
2019-03-18T16:01:20.077Z,4.70
2019-03-18T16:03:48.047Z,3.52
2019-03-18T16:06:16.012Z,2.67
2019-03-18T16:08:43.996Z,4.87
2019-03-18T16:11:12.127Z,3.47
2019-03-18T16:13:40.135Z,3.62
2019-03-18T16:16:08.128Z,3.42
2019-03-18T16:18:36.095Z,4.92
2019-03-18T16:21:04.093Z,5.37
2019-03-18T16:23:32.040Z,5.97
2019-03-18T16:26:00.018Z,4.62
2019-03-18T16:28:28.000Z,8.73
2019-03-18T16:30:56.005Z,5.12
2019-03-18T16:33:23.962Z,7.08
2019-03-18T16:35:51.928Z,10.23
2019-03-18T16:38:19.905Z,4.80
2019-03-18T16:40:47.860Z,6.33
2019-03-18T16:43:15.831Z,4.92
2019-03-18T16:45:43.795Z,6.10
2019-03-18T16:48:11.783Z,3.80
2019-03-18T16:50:39.898Z,7.22
2019-03-18T16:53:07.884Z,6.05
2019-03-18T16:55:35.923Z,3.55
2019-03-18T16:58:03.907Z,6.85
2019-03-18T17:00:31.887Z,8.15
2019-03-18T17:02:59.866Z,6.78
2019-03-18T17:05:27.903Z,6.92
2019-03-18T17:07:55.883Z,9.28
2019-03-18T17:10:23.878Z,5.90
2019-03-18T17:12:51.845Z,7.40
2019-03-18T17:15:20.193Z,8.63
2019-03-18T17:17:48.152Z,12.43
2019-03-18T17:20:16.292Z,8.70
2019-03-18T17:22:49.398Z,7.50
2019-03-18T17:25:15.595Z,4.03
2019-03-18T17:27:43.573Z,7.05
2019-03-18T17:30:15.077Z,12.68
2019-03-18T17:32:43.066Z,6.83
2019-03-18T17:35:11.028Z,4.78
2019-03-18T17:37:39.099Z,8.80
2019-03-18T17:40:11.770Z,7.40
2019-03-18T17:42:39.741Z,7.40
2019-03-18T17:45:09.090Z,7.60
2019-03-18T17:47:37.055Z,6.85
2019-03-18T17:50:12.331Z,5.33
2019-03-18T17:52:40.290Z,8.25
2019-03-18T17:55:08.290Z,10.58
2019-03-18T17:57:36.257Z,8.53
2019-03-18T18:00:06.096Z,13.25
2019-03-18T18:02:34.093Z,7.12
2019-03-18T18:05:03.056Z,4.72
2019-03-18T18:07:31.897Z,7.00
2019-03-18T18:10:00.729Z,14.87
2019-03-18T18:12:28.798Z,5.47
2019-03-18T18:14:58.990Z,9.20
2019-03-18T18:17:26.467Z,8.90
2019-03-18T18:19:54.435Z,13.32
2019-03-18T18:22:22.409Z,5.95
2019-03-18T18:24:50.366Z,6.70
2019-03-18T18:27:19.253Z,11.60
2019-03-18T18:29:47.280Z,8.25
2019-03-18T18:32:15.238Z,9.38
2019-03-18T18:34:43.204Z,8.23
2019-03-18T18:37:11.180Z,5.08
2019-03-18T18:39:39.155Z,12.15
2019-03-18T18:42:07.182Z,8.58
2019-03-18T18:44:35.179Z,13.00
2019-03-18T18:47:03.146Z,8.55
2019-03-18T18:49:31.128Z,10.85
2019-03-18T18:51:59.090Z,9.30
2019-03-18T18:54:27.065Z,7.87
2019-03-18T18:56:55.023Z,14.68
2019-03-18T18:59:22.983Z,6.62
2019-03-18T19:01:51.004Z,8.33
2019-03-18T19:04:20.604Z,6.10
2019-03-18T19:06:48.656Z,5.22
2019-03-18T19:09:16.870Z,8.70
2019-03-18T19:11:45.175Z,12.43
2019-03-18T19:14:13.181Z,9.63
2019-03-18T19:16:41.409Z,16.57
2019-03-18T19:19:09.500Z,12.58
2019-03-18T19:21:37.491Z,6.92
2019-03-18T19:24:05.454Z,9.20
2019-03-18T19:26:33.456Z,6.47
2019-03-18T19:29:01.427Z,4.90
2019-03-18T19:31:29.400Z,7.60
2019-03-18T19:33:57.365Z,11.95
2019-03-18T19:36:25.353Z,13.20
2019-03-18T19:38:53.307Z,12.88
2019-03-18T19:41:23.945Z,8.60
2019-03-18T19:46:19.312Z,13.53
2019-03-18T19:48:47.281Z,10.25
2019-03-18T19:51:15.260Z,7.37
2019-03-18T19:53:49.175Z,11.00
2019-03-18T19:56:12.921Z,11.10
2019-03-18T19:58:41.000Z,10.05
2019-03-18T20:01:08.963Z,11.85
2019-03-18T20:03:37.832Z,13.68
2019-03-18T20:06:05.967Z,8.55
2019-03-18T20:08:33.988Z,12.95
2019-03-18T20:11:01.989Z,10.80
2019-03-18T20:13:30.030Z,11.10
2019-03-18T20:15:58.034Z,10.15
2019-03-18T20:18:25.991Z,9.83
2019-03-18T20:20:56.759Z,6.58
2019-03-18T20:23:23.781Z,10.38
2019-03-18T20:25:51.753Z,13.88
2019-03-18T20:28:19.715Z,7.92
2019-03-18T20:30:47.688Z,12.15
2019-03-18T20:33:15.651Z,15.32
2019-03-18T20:35:43.620Z,11.78
2019-03-18T20:38:11.579Z,12.53
2019-03-18T20:40:39.564Z,11.33
2019-03-18T20:43:07.516Z,8.10
2019-03-18T20:45:35.480Z,13.03
2019-03-18T20:48:03.455Z,9.55
2019-03-18T20:50:31.424Z,13.68
2019-03-18T20:52:59.401Z,9.23
2019-03-18T20:55:27.375Z,14.18
2019-03-18T20:57:55.331Z,15.30
2019-03-18T21:00:23.470Z,8.35
2019-03-18T21:02:51.442Z,9.38
2019-03-18T21:05:19.453Z,16.52
2019-03-18T21:07:47.424Z,10.13
2019-03-18T21:10:15.964Z,12.88
2019-03-18T21:12:43.929Z,14.20
2019-03-18T21:15:15.388Z,14.28
2019-03-18T21:17:43.035Z,13.22
2019-03-18T21:20:12.086Z,12.70
2019-03-18T21:22:40.044Z,11.93
2019-03-18T21:25:08.309Z,18.67
2019-03-18T21:27:36.560Z,16.40
2019-03-18T21:30:09.007Z,12.00
2019-03-18T21:32:36.975Z,14.87
2019-03-18T21:35:05.739Z,13.18
2019-03-18T21:37:33.688Z,21.35
2019-03-18T21:40:01.792Z,13.32
2019-03-18T21:42:29.731Z,9.60
2019-03-18T21:44:57.698Z,12.68
2019-03-18T21:47:25.664Z,15.08
2019-03-18T21:49:53.652Z,12.98
2019-03-18T21:52:21.696Z,13.05
2019-03-18T21:54:49.668Z,21.60
2019-03-18T21:57:17.651Z,14.93
2019-03-18T21:59:45.683Z,13.43
2019-03-18T22:02:13.673Z,13.75
2019-03-18T22:04:41.648Z,15.28
2019-03-18T22:07:09.619Z,25.08
2019-03-18T22:09:37.602Z,15.25
2019-03-18T22:12:05.559Z,16.45
2019-03-18T22:14:33.527Z,19.27
2019-03-18T22:17:01.544Z,22.87
2019-03-18T22:19:30.417Z,18.23
2019-03-18T22:21:58.462Z,20.17
2019-03-18T22:24:26.439Z,17.10
2019-03-18T22:26:54.412Z,20.52
2019-03-18T22:29:22.426Z,19.45
2019-03-18T22:31:50.450Z,15.78
2019-03-18T22:34:18.444Z,20.57
2019-03-18T22:36:46.411Z,18.07
2019-03-18T22:39:14.389Z,17.62
2019-03-18T22:41:42.356Z,20.88
2019-03-18T22:44:10.348Z,17.42
2019-03-18T22:46:38.318Z,24.65
2019-03-18T22:49:06.283Z,20.57
2019-03-18T22:51:34.265Z,26.10
2019-03-18T22:54:02.233Z,30.02
2019-03-18T22:56:30.216Z,25.37
2019-03-18T22:58:58.186Z,22.87
2019-03-18T23:01:26.222Z,33.42
2019-03-18T23:03:54.204Z,24.00
2019-03-18T23:06:22.179Z,24.27
2019-03-18T23:08:50.147Z,35.25
2019-03-18T23:11:18.192Z,28.85
2019-03-18T23:13:46.164Z,27.20
2019-03-18T23:16:14.144Z,26.10
2019-03-18T23:18:42.104Z,23.12
2019-03-18T23:21:10.083Z,32.53
2019-03-18T23:23:38.064Z,31.15
2019-03-18T23:26:06.046Z,22.75
2019-03-18T23:28:34.037Z,25.30
2019-03-18T23:31:02.016Z,22.58
2019-03-18T23:33:29.999Z,25.52
2019-03-18T23:35:57.960Z,24.70
2019-03-18T23:38:25.928Z,20.80
2019-03-18T23:40:53.904Z,22.30
2019-03-18T23:43:21.890Z,22.20
2019-03-18T23:45:49.850Z,25.52
2019-03-18T23:48:17.816Z,22.15
2019-03-18T23:50:45.801Z,30.95
2019-03-18T23:53:13.784Z,26.60
2019-03-18T23:55:41.749Z,24.70
2019-03-18T23:58:09.714Z,19.75
